Página principal
METAR-TAF:

METAR-TAF

Aeroportos :

Aeroporto Internacional Rei Abdulaziz

Jidá, Arábia Saudita

latitude: 21-42N, longitude: 039-11E, altura: 15 m

Observação actual do tempo

O boletim foi feito há 10 minutos, às 08:00 UTC
Vento 10 kt de oes-noroeste
Temperatura 36°C
Humidade 53%
Pressão 1002 hPa
Visibilidade 10 km ou mais
Poucas nuvensa uma altura de 4000 ft

METAR: OEJN 250800Z 30010KT 9999 FEW040 36/25 Q1002 NOSIG

Hora: 11:10 (08:10 UTC)

Previsão

O boletim foi feito há 3 horas e 10 minutos, às 05:00 UTC
Previsão válida de 25 às 06 UTC a 26 às 12 UTC
Vento 16 kt de nor-noroeste
Visibilidade 10 km ou mais
Poucas nuvensa uma altura de 4000 ft
Tornando-se
de 25 às 18 UTC a 25 às 20 UTC
Vento 6 kt de norte

TAF: OEJN 250500Z 2506/2612 33016KT 9999 FEW040 BECMG 2518/2520 36006KT

Observações e previsões do tempo de mais de 4000 aeroportos (mensagens METAR e TAF).

As estações disponíveis são os pontos amarelos e vermelhos sobre o mapa.

Mova o rato sobre o mapa para ver o nome da estação.

Depois clique no ponto para visualizar as observações e previsões meteorológicas.

Para alterar o mapa : clique nos botões verdes com uma cruz preta para aumentar o zoom; no botão verde com uma pitada de zoom; ou nas setas verdes para mapas adjacentes.


METAR-TAF: